createdAt,value
2023-02-24T00:02:15.209Z,8.67
2023-02-24T00:04:44.225Z,10.17
2023-02-24T00:07:14.096Z,10.73
2023-02-24T00:09:45.194Z,10.30
2023-02-24T00:12:17.061Z,11.20
2023-02-24T00:14:47.345Z,11.50
2023-02-24T00:17:15.778Z,10.87
2023-02-24T00:19:46.397Z,11.60
2023-02-24T00:22:15.075Z,12.50
2023-02-24T00:24:44.765Z,11.97
2023-02-24T00:27:13.783Z,11.80
2023-02-24T00:29:47.460Z,9.70
2023-02-24T00:32:16.036Z,9.93
2023-02-24T00:34:44.570Z,9.43
2023-02-24T00:37:15.511Z,9.33
2023-02-24T00:39:48.060Z,10.83
2023-02-24T00:42:16.787Z,11.50
2023-02-24T00:44:48.009Z,11.87
2023-02-24T00:47:18.696Z,9.97
2023-02-24T00:49:48.289Z,9.77
2023-02-24T00:52:20.112Z,10.50
2023-02-24T00:54:51.233Z,10.63
2023-02-24T00:57:21.531Z,9.97
2023-02-24T00:59:52.715Z,9.30
2023-02-24T01:02:21.586Z,12.60
2023-02-24T01:04:54.219Z,11.47
2023-02-24T01:07:23.274Z,12.73
2023-02-24T01:09:54.534Z,12.90
2023-02-24T01:12:41.803Z,8.30
2023-02-24T01:15:12.673Z,8.67
2023-02-24T01:17:44.263Z,9.90
2023-02-24T01:20:18.416Z,10.33
2023-02-24T01:22:50.232Z,11.00
2023-02-24T01:25:21.680Z,12.60
2023-02-24T01:27:50.902Z,13.70
2023-02-24T01:30:20.694Z,14.57
2023-02-24T01:32:49.609Z,14.57
2023-02-24T01:35:18.764Z,15.63
2023-02-24T01:37:47.225Z,14.93
2023-02-24T01:40:21.245Z,16.13
2023-02-24T01:42:53.018Z,15.33
2023-02-24T01:45:26.571Z,16.67
2023-02-24T01:48:00.185Z,15.57
2023-02-24T01:50:30.453Z,15.13
2023-02-24T01:53:04.016Z,13.67
2023-02-24T01:55:39.257Z,13.43
2023-02-24T01:58:20.150Z,13.50
2023-02-24T02:00:49.146Z,14.87
2023-02-24T02:03:33.217Z,15.43
2023-02-24T02:06:05.529Z,16.80
2023-02-24T02:08:37.136Z,16.17
2023-02-24T02:11:10.000Z,17.33
2023-02-24T02:13:45.326Z,15.60
2023-02-24T02:16:54.469Z,16.03
2023-02-24T02:20:17.802Z,15.40
2023-02-24T02:23:37.668Z,15.00
2023-02-24T02:26:35.880Z,16.70
2023-02-24T02:30:01.204Z,16.17
2023-02-24T02:33:02.232Z,15.47
2023-02-24T02:35:37.949Z,14.73
2023-02-24T02:38:15.846Z,14.80
2023-02-24T02:40:53.866Z,15.20
2023-02-24T02:43:37.285Z,15.30
2023-02-24T02:46:14.936Z,16.00
2023-02-24T02:48:53.800Z,16.87
2023-02-24T02:51:38.904Z,17.10
2023-02-24T02:54:18.340Z,17.90
2023-02-24T02:56:55.345Z,19.40
2023-02-24T02:59:30.383Z,20.03
2023-02-24T03:02:11.810Z,19.57
2023-02-24T03:04:48.155Z,20.33
2023-02-24T03:07:21.105Z,20.03
2023-02-24T03:09:58.260Z,19.13
2023-02-24T03:12:32.742Z,18.57
2023-02-24T03:15:07.865Z,18.50
2023-02-24T03:17:47.463Z,19.47
2023-02-24T03:20:29.290Z,19.97
2023-02-24T03:23:06.419Z,19.23
2023-02-24T03:25:48.070Z,17.47
2023-02-24T03:28:25.564Z,18.00
2023-02-24T03:31:03.805Z,18.50
2023-02-24T03:33:41.045Z,17.67
2023-02-24T03:36:10.700Z,19.10
2023-02-24T03:38:41.441Z,18.83
2023-02-24T03:41:11.822Z,19.70
2023-02-24T03:43:47.681Z,19.47
2023-02-24T03:46:18.059Z,18.13
2023-02-24T03:48:55.751Z,18.43
2023-02-24T03:51:24.644Z,17.77
2023-02-24T03:54:15.751Z,19.70
2023-02-24T03:57:00.120Z,16.77
2023-02-24T03:59:46.400Z,17.00
2023-02-24T04:02:23.609Z,16.93
2023-02-24T04:05:01.329Z,16.97
2023-02-24T04:07:52.308Z,18.50
2023-02-24T04:10:32.778Z,20.10
2023-02-24T04:13:14.458Z,19.03
2023-02-24T04:15:48.978Z,18.83
2023-02-24T04:18:22.299Z,20.83
2023-02-24T04:20:53.533Z,19.93
2023-02-24T04:23:33.642Z,21.27
2023-02-24T04:26:04.385Z,20.60
2023-02-24T04:28:35.046Z,21.00
2023-02-24T04:31:10.771Z,20.63
2023-02-24T04:33:41.208Z,20.83
2023-02-24T04:36:13.191Z,20.60
2023-02-24T04:38:43.152Z,20.27
2023-02-24T04:41:14.315Z,22.47
2023-02-24T04:43:42.878Z,21.93
2023-02-24T04:46:13.527Z,20.33
2023-02-24T04:48:42.003Z,22.57
2023-02-24T04:51:10.431Z,22.77
2023-02-24T04:53:38.868Z,21.50
2023-02-24T04:56:09.411Z,21.40
2023-02-24T04:58:42.693Z,20.87
2023-02-24T05:01:12.746Z,20.13
2023-02-24T05:03:43.407Z,19.57
2023-02-24T05:06:18.697Z,21.03
2023-02-24T05:08:47.218Z,19.47
2023-02-24T05:11:18.436Z,20.60
2023-02-24T05:13:48.865Z,23.03
2023-02-24T05:16:20.493Z,20.30
2023-02-24T05:18:49.118Z,21.00
2023-02-24T05:21:36.142Z,22.60
2023-02-24T05:24:06.974Z,21.83
2023-02-24T05:26:38.207Z,22.33
2023-02-24T05:29:09.407Z,21.53
2023-02-24T05:31:38.375Z,19.97
2023-02-24T05:34:09.271Z,21.07
2023-02-24T05:36:41.334Z,22.00
2023-02-24T05:39:12.510Z,19.50
2023-02-24T05:41:44.404Z,20.17
2023-02-24T05:44:16.712Z,19.17
2023-02-24T05:46:51.112Z,20.77
2023-02-24T05:49:24.250Z,20.47
2023-02-24T05:51:58.025Z,19.63
2023-02-24T05:54:29.499Z,19.30
2023-02-24T05:57:01.353Z,20.83
2023-02-24T05:59:33.027Z,19.17
2023-02-24T06:02:07.149Z,20.87
2023-02-24T06:04:50.944Z,22.60
2023-02-24T06:07:26.515Z,21.60
2023-02-24T06:09:57.831Z,22.67
2023-02-24T06:12:29.856Z,20.47
2023-02-24T06:15:00.387Z,21.10
2023-02-24T06:17:33.132Z,22.33
2023-02-24T06:20:01.493Z,21.67
2023-02-24T06:22:29.906Z,22.33
2023-02-24T06:24:58.279Z,20.83
2023-02-24T06:27:27.167Z,22.67
2023-02-24T06:29:57.641Z,24.13
2023-02-24T06:32:28.175Z,24.10
2023-02-24T06:34:59.532Z,23.23
2023-02-24T06:37:30.048Z,25.03
2023-02-24T06:39:58.545Z,23.73
2023-02-24T06:42:27.455Z,24.13
2023-02-24T06:44:56.406Z,25.23
2023-02-24T06:47:27.106Z,27.37
2023-02-24T06:49:55.457Z,24.27
2023-02-24T06:52:26.457Z,24.90
2023-02-24T06:54:54.861Z,33.20
2023-02-24T06:57:23.652Z,27.87
2023-02-24T06:59:52.360Z,27.20
2023-02-24T07:02:20.779Z,24.83
2023-02-24T07:04:50.700Z,24.00
2023-02-24T07:07:19.929Z,24.47
2023-02-24T07:09:48.203Z,24.20
2023-02-24T07:12:21.123Z,24.87
2023-02-24T07:14:50.922Z,25.37
2023-02-24T07:17:21.006Z,26.10
2023-02-24T07:19:50.821Z,26.20
2023-02-24T07:22:25.537Z,26.00
2023-02-24T07:25:00.502Z,26.43
2023-02-24T07:27:29.220Z,25.53
2023-02-24T07:29:59.280Z,25.30
2023-02-24T07:32:28.928Z,26.97
2023-02-24T07:34:59.684Z,25.97
2023-02-24T07:37:31.898Z,25.67
2023-02-24T07:40:00.270Z,26.00
2023-02-24T07:42:30.679Z,25.63
2023-02-24T07:44:59.111Z,25.80
2023-02-24T07:47:27.751Z,26.10
2023-02-24T07:50:00.421Z,25.00
2023-02-24T07:52:32.562Z,26.23
2023-02-24T07:55:00.833Z,26.07
2023-02-24T07:57:29.204Z,26.30
2023-02-24T07:59:57.584Z,26.07
2023-02-24T08:02:26.285Z,26.40
2023-02-24T08:04:54.906Z,26.37
2023-02-24T08:07:30.435Z,25.17
2023-02-24T08:10:24.396Z,26.87
2023-02-24T08:12:55.595Z,25.03
2023-02-24T08:15:26.538Z,24.50
2023-02-24T08:17:59.637Z,23.70
2023-02-24T08:20:36.229Z,23.33
2023-02-24T08:23:08.722Z,23.90
2023-02-24T08:25:38.514Z,23.40
2023-02-24T08:28:11.796Z,22.90
2023-02-24T08:30:46.070Z,22.77
2023-02-24T08:33:23.549Z,22.93
2023-02-24T08:36:01.814Z,23.17
2023-02-24T08:38:45.419Z,23.40
2023-02-24T08:41:20.358Z,22.77
2023-02-24T08:43:50.389Z,21.77
2023-02-24T08:46:26.578Z,23.07
2023-02-24T08:49:00.683Z,21.27
2023-02-24T08:51:35.094Z,20.40
2023-02-24T08:54:11.406Z,20.37
2023-02-24T08:56:43.808Z,21.07
2023-02-24T08:59:29.280Z,20.97
2023-02-24T09:02:14.061Z,20.33
2023-02-24T09:04:44.978Z,18.97
2023-02-24T09:07:20.847Z,18.43
2023-02-24T09:09:49.540Z,18.00
2023-02-24T09:12:25.769Z,19.47
2023-02-24T09:15:01.101Z,19.10
2023-02-24T09:17:51.051Z,19.00
2023-02-24T09:20:51.833Z,18.40
2023-02-24T09:23:21.166Z,20.00
2023-02-24T09:25:54.492Z,19.03
2023-02-24T09:28:27.120Z,18.63
2023-02-24T09:30:58.625Z,18.00
2023-02-24T09:33:29.497Z,17.87
2023-02-24T09:36:14.326Z,18.70
2023-02-24T09:38:59.866Z,19.23
2023-02-24T09:41:54.025Z,18.37
2023-02-24T09:44:35.004Z,18.53
2023-02-24T09:47:20.163Z,17.00
2023-02-24T09:49:56.406Z,18.67
2023-02-24T09:52:39.778Z,17.83
2023-02-24T09:55:29.560Z,17.50
2023-02-24T09:58:34.785Z,18.10
2023-02-24T10:01:33.562Z,17.03
2023-02-24T10:04:20.770Z,16.77
2023-02-24T10:06:51.922Z,17.70
2023-02-24T10:09:27.089Z,17.40
2023-02-24T10:12:04.662Z,17.50
2023-02-24T10:14:44.725Z,17.20
2023-02-24T10:17:24.446Z,18.23
2023-02-24T10:20:01.197Z,16.87
2023-02-24T10:22:50.841Z,16.87
2023-02-24T10:25:41.197Z,18.60
2023-02-24T10:28:35.737Z,19.07
2023-02-24T10:31:36.844Z,17.63
2023-02-24T10:34:12.654Z,19.50
2023-02-24T10:36:41.873Z,19.87
2023-02-24T10:39:20.466Z,20.10
2023-02-24T10:41:57.506Z,19.40
2023-02-24T10:44:36.147Z,20.80
2023-02-24T10:47:14.271Z,21.37
2023-02-24T10:49:57.190Z,21.07
2023-02-24T10:52:51.100Z,20.23
2023-02-24T10:55:53.573Z,20.77
2023-02-24T10:58:37.804Z,20.77
2023-02-24T11:01:18.172Z,20.87
2023-02-24T11:04:09.784Z,22.03
2023-02-24T11:06:52.758Z,20.63
2023-02-24T11:09:44.133Z,19.97
2023-02-24T11:12:38.241Z,20.07
2023-02-24T11:15:37.336Z,20.60
2023-02-24T11:18:08.820Z,20.70
2023-02-24T11:20:49.344Z,20.20
2023-02-24T11:23:25.945Z,20.47
2023-02-24T11:26:00.882Z,21.20
2023-02-24T11:28:48.929Z,21.47
2023-02-24T11:31:56.098Z,20.67
2023-02-24T11:34:34.224Z,20.13
2023-02-24T11:37:24.379Z,20.90
2023-02-24T11:40:01.939Z,20.83
2023-02-24T11:42:42.048Z,20.57
2023-02-24T11:45:26.408Z,20.50
2023-02-24T11:48:04.908Z,22.10
2023-02-24T11:50:48.604Z,21.03
2023-02-24T11:53:31.426Z,20.67
2023-02-24T11:56:07.905Z,23.60
2023-02-24T11:58:44.309Z,21.07
2023-02-24T12:01:22.401Z,20.20
2023-02-24T12:04:02.923Z,20.20
2023-02-24T12:06:39.216Z,22.00
2023-02-24T12:09:18.940Z,20.43
2023-02-24T12:12:03.389Z,20.50
2023-02-24T12:14:39.797Z,20.57
2023-02-24T12:17:19.245Z,21.87
2023-02-24T12:20:05.665Z,22.37
2023-02-24T12:22:46.542Z,21.43
2023-02-24T12:25:16.836Z,20.83
2023-02-24T12:28:10.966Z,22.30
2023-02-24T12:31:12.531Z,22.47
2023-02-24T12:33:58.702Z,22.57
2023-02-24T12:37:01.692Z,22.33
2023-02-24T12:39:39.460Z,21.77
2023-02-24T12:42:22.566Z,21.33
2023-02-24T12:45:02.526Z,21.73
2023-02-24T12:47:51.592Z,23.27
2023-02-24T12:50:45.805Z,20.87
2023-02-24T12:53:23.856Z,21.10
2023-02-24T12:56:07.386Z,22.17
2023-02-24T12:58:40.982Z,23.20
2023-02-24T13:01:23.471Z,22.43
2023-02-24T13:04:13.879Z,23.30
2023-02-24T13:07:06.224Z,22.27
2023-02-24T13:09:47.133Z,25.23
2023-02-24T13:12:28.329Z,24.27
2023-02-24T13:14:57.557Z,25.07
2023-02-24T13:17:28.251Z,27.73
2023-02-24T13:20:10.931Z,25.67
2023-02-24T13:22:44.704Z,26.70
2023-02-24T13:25:23.601Z,25.37
2023-02-24T13:28:08.167Z,24.77
2023-02-24T13:30:45.065Z,25.13
2023-02-24T13:33:29.806Z,25.13
2023-02-24T13:36:14.343Z,25.97
2023-02-24T13:38:46.128Z,24.60
2023-02-24T13:41:41.811Z,24.33
2023-02-24T13:44:27.546Z,21.83
2023-02-24T13:47:47.739Z,22.20
2023-02-24T13:50:26.261Z,22.67
2023-02-24T13:53:29.715Z,21.67
2023-02-24T13:56:25.954Z,18.70
2023-02-24T13:59:18.217Z,19.20
2023-02-24T14:01:53.107Z,19.83
2023-02-24T14:04:29.308Z,16.50
2023-02-24T14:07:05.845Z,16.73
2023-02-24T14:09:40.771Z,16.47
2023-02-24T14:12:16.574Z,14.43
2023-02-24T14:14:47.050Z,14.50
2023-02-24T14:17:28.843Z,14.53
2023-02-24T14:20:09.801Z,15.43
2023-02-24T14:22:46.122Z,13.87
2023-02-24T14:25:15.816Z,12.43
2023-02-24T14:27:47.357Z,13.30
2023-02-24T14:30:32.716Z,14.37
2023-02-24T14:33:03.627Z,13.93
2023-02-24T14:35:38.615Z,13.43
2023-02-24T14:38:27.888Z,13.60
2023-02-24T14:40:56.281Z,14.10
2023-02-24T14:43:25.191Z,14.37
2023-02-24T14:45:57.611Z,16.80
2023-02-24T14:48:28.996Z,15.87
2023-02-24T14:51:03.039Z,16.43
2023-02-24T14:53:39.913Z,15.17
2023-02-24T14:56:13.610Z,15.17
2023-02-24T14:58:48.723Z,14.50
2023-02-24T15:01:25.613Z,15.33
2023-02-24T15:04:02.147Z,15.73
2023-02-24T15:06:40.720Z,14.20
2023-02-24T15:09:17.384Z,15.10
2023-02-24T15:11:46.411Z,15.60
2023-02-24T15:14:24.506Z,14.07
2023-02-24T15:16:58.015Z,15.13
2023-02-24T15:19:32.571Z,14.83
2023-02-24T15:22:01.643Z,16.13
2023-02-24T15:24:35.119Z,14.93
2023-02-24T15:27:22.244Z,15.40
2023-02-24T15:30:05.697Z,16.60
2023-02-24T15:32:38.680Z,15.87
2023-02-24T15:35:08.730Z,17.40
2023-02-24T15:37:44.760Z,15.30
2023-02-24T15:40:23.296Z,15.73
2023-02-24T15:42:55.445Z,18.17
2023-02-24T15:45:30.187Z,54.73
2023-02-24T15:48:01.420Z,22.20
2023-02-24T15:50:32.952Z,19.37
2023-02-24T15:53:05.416Z,21.23
2023-02-24T15:55:35.139Z,19.50
2023-02-24T15:58:05.506Z,17.20
2023-02-24T16:00:33.955Z,17.37
2023-02-24T16:03:02.552Z,18.13
2023-02-24T16:05:30.918Z,16.77
2023-02-24T16:07:59.508Z,18.43
2023-02-24T16:10:31.087Z,17.27
2023-02-24T16:13:03.139Z,16.47
2023-02-24T16:15:35.644Z,18.13
2023-02-24T16:18:04.100Z,18.43
2023-02-24T16:20:34.101Z,17.93
2023-02-24T16:23:06.388Z,19.47
2023-02-24T16:25:41.283Z,18.27
2023-02-24T16:28:16.539Z,18.53
2023-02-24T16:30:46.636Z,17.17
2023-02-24T16:33:16.483Z,14.30
2023-02-24T16:35:45.537Z,14.73
2023-02-24T16:38:16.830Z,14.77
2023-02-24T16:40:48.639Z,12.77
2023-02-24T16:43:19.810Z,12.80
2023-02-24T16:45:48.953Z,13.17
2023-02-24T16:48:22.709Z,13.70
2023-02-24T16:50:51.708Z,13.27
2023-02-24T16:53:28.003Z,13.60
2023-02-24T16:55:56.333Z,14.13
2023-02-24T16:58:26.166Z,14.30
2023-02-24T17:01:03.445Z,13.57
2023-02-24T17:03:43.700Z,13.87
2023-02-24T17:06:12.152Z,13.23
2023-02-24T17:08:41.621Z,15.83
2023-02-24T17:11:14.343Z,13.67
2023-02-24T17:13:44.748Z,14.20
2023-02-24T17:16:14.566Z,14.90
2023-02-24T17:18:43.134Z,14.90
2023-02-24T17:21:14.558Z,16.57
2023-02-24T17:23:43.604Z,15.13
2023-02-24T17:26:16.154Z,12.53
2023-02-24T17:28:46.254Z,13.47
2023-02-24T17:31:15.153Z,13.47
2023-02-24T17:33:43.491Z,13.97
2023-02-24T17:36:11.820Z,13.73
2023-02-24T17:38:40.094Z,12.90
2023-02-24T17:41:08.585Z,14.07
2023-02-24T17:43:37.257Z,14.23
2023-02-24T17:46:07.587Z,15.13
2023-02-24T17:48:36.325Z,15.50
2023-02-24T17:51:05.008Z,14.83
2023-02-24T17:53:33.381Z,13.90
2023-02-24T17:56:06.800Z,12.80
2023-02-24T17:58:36.122Z,13.30
2023-02-24T18:01:07.854Z,13.03
2023-02-24T18:03:37.524Z,14.27
2023-02-24T18:06:09.456Z,14.07
2023-02-24T18:08:40.562Z,16.03
2023-02-24T18:11:13.850Z,14.80
2023-02-24T18:13:42.205Z,14.73
2023-02-24T18:16:16.065Z,15.90
2023-02-24T18:18:45.893Z,14.37
2023-02-24T18:21:14.198Z,14.03
2023-02-24T18:23:42.626Z,13.63
2023-02-24T18:26:13.815Z,13.77
2023-02-24T18:28:42.402Z,13.80
2023-02-24T18:31:27.377Z,14.37
2023-02-24T18:33:58.067Z,14.03
2023-02-24T18:36:27.414Z,14.13
2023-02-24T18:38:58.685Z,14.43
2023-02-24T18:41:27.836Z,14.03
2023-02-24T18:43:59.168Z,13.57
2023-02-24T18:46:29.881Z,15.13
2023-02-24T18:48:59.002Z,17.03
2023-02-24T18:51:29.057Z,15.43
2023-02-24T18:54:00.438Z,15.90
2023-02-24T18:56:32.085Z,16.50
2023-02-24T18:59:02.502Z,15.47
2023-02-24T19:01:34.571Z,15.53
2023-02-24T19:04:04.153Z,17.33
2023-02-24T19:06:34.694Z,17.90
2023-02-24T19:09:09.742Z,17.60
2023-02-24T19:11:39.485Z,19.20
2023-02-24T19:14:11.984Z,17.37
2023-02-24T19:16:42.600Z,18.70
2023-02-24T19:19:14.912Z,18.37
2023-02-24T19:21:45.503Z,18.33
2023-02-24T19:24:14.303Z,17.57
2023-02-24T19:26:46.081Z,18.87
2023-02-24T19:29:17.663Z,19.63
2023-02-24T19:31:54.102Z,20.30
2023-02-24T19:34:22.773Z,18.67
2023-02-24T19:36:51.227Z,18.10
2023-02-24T19:39:20.114Z,19.60
2023-02-24T19:41:49.758Z,18.40
2023-02-24T19:44:18.186Z,18.47
2023-02-24T19:46:47.888Z,21.03
2023-02-24T19:49:16.156Z,18.80
2023-02-24T19:51:46.638Z,20.67
2023-02-24T19:54:16.499Z,17.47
2023-02-24T19:56:45.216Z,18.67
2023-02-24T19:59:13.627Z,16.73
2023-02-24T20:01:42.803Z,16.53
2023-02-24T20:04:13.028Z,14.97
2023-02-24T20:06:44.043Z,16.03
2023-02-24T20:09:17.655Z,15.30
2023-02-24T20:11:47.856Z,16.73
2023-02-24T20:14:18.485Z,16.30
2023-02-24T20:16:48.518Z,16.43
2023-02-24T20:19:18.620Z,16.93
2023-02-24T20:21:50.031Z,17.33
2023-02-24T20:24:22.986Z,17.60
2023-02-24T20:26:51.360Z,16.80
2023-02-24T20:29:22.503Z,17.30
2023-02-24T20:31:51.693Z,17.30
2023-02-24T20:34:22.065Z,16.43
2023-02-24T20:36:50.467Z,17.17
2023-02-24T20:39:18.935Z,17.80
2023-02-24T20:41:47.251Z,17.90
2023-02-24T20:44:15.638Z,17.80
2023-02-24T20:46:45.172Z,17.23
2023-02-24T20:49:15.693Z,13.43
2023-02-24T20:51:45.618Z,12.27
2023-02-24T20:54:15.735Z,12.47
2023-02-24T20:56:46.682Z,12.63
2023-02-24T20:59:18.125Z,12.63
2023-02-24T21:01:48.679Z,13.20
2023-02-24T21:04:21.311Z,12.40
2023-02-24T21:06:52.034Z,12.43
2023-02-24T21:09:20.718Z,12.30
2023-02-24T21:11:49.125Z,12.30
2023-02-24T21:14:18.570Z,12.00
2023-02-24T21:16:47.133Z,12.63
2023-02-24T21:19:17.890Z,12.70
2023-02-24T21:21:46.364Z,11.47
2023-02-24T21:24:19.674Z,11.40
2023-02-24T21:26:48.722Z,10.87
2023-02-24T21:29:17.473Z,11.03
2023-02-24T21:31:50.284Z,10.27
2023-02-24T21:34:19.120Z,10.70
2023-02-24T21:36:47.537Z,10.30
2023-02-24T21:39:18.100Z,10.43
2023-02-24T21:41:49.720Z,10.53
2023-02-24T21:44:18.149Z,10.00
2023-02-24T21:46:46.874Z,9.97
2023-02-24T21:49:15.418Z,9.50
2023-02-24T21:51:43.846Z,9.30
2023-02-24T21:54:14.326Z,10.13
2023-02-24T21:56:44.102Z,4.53
2023-02-24T21:59:12.819Z,3.10
2023-02-24T22:01:44.420Z,2.20
2023-02-24T22:04:17.196Z,2.47
2023-02-24T22:06:46.298Z,2.17
2023-02-24T22:09:19.469Z,2.47
2023-02-24T22:11:51.291Z,2.00
2023-02-24T22:14:20.516Z,1.80
2023-02-24T22:16:48.911Z,2.00
2023-02-24T22:19:19.120Z,2.17
2023-02-24T22:21:47.857Z,1.40
2023-02-24T22:24:19.195Z,1.07
2023-02-24T22:26:49.319Z,1.03
2023-02-24T22:29:21.686Z,1.20
2023-02-24T22:31:50.346Z,0.93
2023-02-24T22:34:19.338Z,1.10
2023-02-24T22:36:48.062Z,1.10
2023-02-24T22:39:17.110Z,1.07
2023-02-24T22:41:47.591Z,0.90
2023-02-24T22:44:19.332Z,0.90
2023-02-24T22:46:48.964Z,0.70
2023-02-24T22:49:18.511Z,1.10
2023-02-24T22:51:46.932Z,1.47
2023-02-24T22:54:15.750Z,1.43
2023-02-24T22:56:44.634Z,1.50
2023-02-24T22:59:14.131Z,1.47
2023-02-24T23:01:44.145Z,1.30
2023-02-24T23:04:18.212Z,2.00
2023-02-24T23:06:47.598Z,1.70
2023-02-24T23:09:19.887Z,1.60
2023-02-24T23:11:49.691Z,1.43
2023-02-24T23:14:18.297Z,1.60
2023-02-24T23:16:53.695Z,1.70
2023-02-24T23:19:23.123Z,1.33
2023-02-24T23:21:54.218Z,1.40
2023-02-24T23:24:24.143Z,1.73
2023-02-24T23:26:57.678Z,1.90
2023-02-24T23:29:30.787Z,1.60
2023-02-24T23:32:00.657Z,1.57
2023-02-24T23:34:32.853Z,1.60
2023-02-24T23:37:01.202Z,1.60
2023-02-24T23:39:29.602Z,1.70
2023-02-24T23:41:57.935Z,1.90
2023-02-24T23:44:26.755Z,1.70
2023-02-24T23:46:58.163Z,1.80
2023-02-24T23:49:39.084Z,1.90
2023-02-24T23:52:14.884Z,1.80
2023-02-24T23:54:43.630Z,2.03
2023-02-24T23:57:12.330Z,2.30
2023-02-24T23:59:40.788Z,1.87
